Time;durP1;ratioP1;P1;durP2;ratioP2;P2;SDS_P1;SDS_P2;PMS_P1;PMS_P2;Temp;Humidity;BMP_temperature;BMP_pressure;BME280_temperature;BME280_humidity;BME280_pressure;Samples;Min_cycle;Max_cycle;Signal;HPM_P1;HPM_P2
2022/05/07 00:00:22;;;;;;;;;;;12.80;99.90;;;;;;5035823;28;20299;-73
2022/05/07 00:03:10;;;;;;;;;;;12.80;99.90;;;;;;5033637;28;20372;-72
2022/05/07 00:05:39;;;;;;;;;;;12.80;99.90;;;;;;5033433;28;19921;-73
2022/05/07 00:08:05;;;;;;;;;;;12.80;99.90;;;;;;5034583;28;19928;-73
2022/05/07 00:10:33;;;;;;;;;;;12.80;99.90;;;;;;5034440;28;19921;-72
2022/05/07 00:12:59;;;;;;;;;;;12.80;99.90;;;;;;5033973;28;20416;-73
2022/05/07 00:15:24;;;;;;;;;;;12.90;99.90;;;;;;5035034;28;19976;-73
2022/05/07 00:18:03;;;;;;;;;;;12.90;99.90;;;;;;5035089;28;19927;-72
2022/05/07 00:20:30;;;;;;;;;;;12.90;99.90;;;;;;5034408;28;19971;-73
2022/05/07 00:22:56;;;;;;;;;;;12.80;99.90;;;;;;5036433;28;19921;-73
2022/05/07 00:25:32;;;;;;;;;;;12.80;99.90;;;;;;5038875;28;19929;-73
2022/05/07 00:27:58;;;;;;;;;;;12.80;99.90;;;;;;5040206;28;19967;-73
2022/05/07 00:30:23;;;;;;;;;;;12.80;99.90;;;;;;5038398;28;19920;-73
2022/05/07 00:32:49;;;;;;;;;;;12.80;99.90;;;;;;5039140;28;19964;-74
2022/05/07 00:35:14;;;;;;;;;;;12.80;99.90;;;;;;5038135;28;19980;-72
2022/05/07 00:37:40;;;;;;;;;;;12.90;99.90;;;;;;5039561;28;20262;-72
2022/05/07 00:40:06;;;;;;;;;;;12.90;99.90;;;;;;5037973;28;19944;-73
2022/05/07 00:42:31;;;;;;;;;;;12.90;99.90;;;;;;5038522;28;19927;-73
2022/05/07 00:44:57;;;;;;;;;;;13.00;99.90;;;;;;5039176;28;19921;-73
2022/05/07 00:47:26;;;;;;;;;;;13.00;99.90;;;;;;5039368;28;19925;-73
2022/05/07 00:49:53;;;;;;;;;;;13.00;99.90;;;;;;5039775;28;19971;-73
2022/05/07 00:52:19;;;;;;;;;;;13.00;99.90;;;;;;5036289;28;19928;-73
2022/05/07 00:54:45;;;;;;;;;;;13.00;99.90;;;;;;5037353;28;19977;-73
2022/05/07 00:57:15;;;;;;;;;;;13.00;99.90;;;;;;5036030;28;20380;-73
2022/05/07 00:59:43;;;;;;;;;;;13.00;99.90;;;;;;5038775;28;19921;-73
2022/05/07 01:02:08;;;;;;;;;;;13.00;99.90;;;;;;5038685;28;19928;-73
2022/05/07 01:04:35;;;;;;;;;;;13.00;99.90;;;;;;5039515;28;19921;-73
2022/05/07 01:07:01;;;;;;;;;;;13.00;99.90;;;;;;5036922;28;19921;-73
2022/05/07 01:09:27;;;;;;;;;;;13.50;99.90;;;;;;5037028;28;20064;-73
2022/05/07 01:11:52;;;;;;;;;;;13.00;99.90;;;;;;5037052;28;20376;-73
2022/05/07 01:14:18;;;;;;;;;;;13.00;99.90;;;;;;5036991;28;19978;-72
2022/05/07 01:16:43;;;;;;;;;;;13.00;99.90;;;;;;5038024;28;19921;-72
2022/05/07 01:19:09;;;;;;;;;;;13.00;99.90;;;;;;5037757;28;20004;-73
2022/05/07 01:21:34;;;;;;;;;;;13.00;99.90;;;;;;5037222;28;19927;-73
2022/05/07 01:24:04;;;;;;;;;;;13.00;99.90;;;;;;5038853;28;19921;-73
2022/05/07 01:26:29;;;;;;;;;;;13.00;99.90;;;;;;5037607;28;19925;-74
2022/05/07 01:28:59;;;;;;;;;;;12.90;99.90;;;;;;5037275;28;19917;-74
2022/05/07 01:31:28;;;;;;;;;;;12.90;99.90;;;;;;5036205;28;19975;-74
2022/05/07 01:33:54;;;;;;;;;;;12.90;99.90;;;;;;5037196;28;19928;-73
2022/05/07 01:36:19;;;;;;;;;;;13.20;99.90;;;;;;5036147;28;19925;-74
2022/05/07 01:38:45;;;;;;;;;;;12.80;99.90;;;;;;5037509;28;19921;-73
2022/05/07 01:41:11;;;;;;;;;;;12.80;99.90;;;;;;5035981;28;19921;-74
2022/05/07 01:43:36;;;;;;;;;;;12.80;99.90;;;;;;5036938;28;19932;-73
2022/05/07 01:46:02;;;;;;;;;;;12.80;99.90;;;;;;5037506;28;19965;-74
2022/05/07 01:48:28;;;;;;;;;;;12.70;99.90;;;;;;5035639;28;19921;-73
2022/05/07 01:50:59;;;;;;;;;;;12.70;99.90;;;;;;5037419;28;20276;-73
2022/05/07 01:53:28;;;;;;;;;;;12.70;99.90;;;;;;5037323;28;19964;-73
2022/05/07 01:55:53;;;;;;;;;;;12.70;99.90;;;;;;5035979;28;19928;-73
2022/05/07 01:58:19;;;;;;;;;;;12.70;99.90;;;;;;5037838;28;20019;-73
2022/05/07 02:00:44;;;;;;;;;;;12.70;99.90;;;;;;5037949;28;20425;-73
2022/05/07 02:03:10;;;;;;;;;;;12.60;99.90;;;;;;5035464;28;19921;-73
2022/05/07 02:05:35;;;;;;;;;;;12.60;99.90;;;;;;5037258;28;19928;-74
2022/05/07 02:08:02;;;;;;;;;;;12.60;99.90;;;;;;5036416;28;19980;-73
2022/05/07 02:10:27;;;;;;;;;;;12.60;99.90;;;;;;5037110;28;19917;-73
2022/05/07 02:12:53;;;;;;;;;;;12.60;99.90;;;;;;5037627;28;20035;-73
2022/05/07 02:15:19;;;;;;;;;;;12.60;99.90;;;;;;5037354;28;20392;-73
2022/05/07 02:17:47;;;;;;;;;;;12.60;99.90;;;;;;5037185;28;19925;-72
2022/05/07 02:20:13;;;;;;;;;;;12.60;99.90;;;;;;5037006;28;19921;-73
2022/05/07 02:22:38;;;;;;;;;;;12.50;99.90;;;;;;5035723;28;19939;-73
2022/05/07 02:25:04;;;;;;;;;;;12.50;99.90;;;;;;5035050;28;19921;-73
2022/05/07 02:27:30;;;;;;;;;;;12.50;99.90;;;;;;5035327;28;19921;-73
2022/05/07 02:29:55;;;;;;;;;;;12.50;99.90;;;;;;5035731;28;20340;-72
2022/05/07 02:32:21;;;;;;;;;;;12.50;99.90;;;;;;5036310;28;20423;-72
2022/05/07 02:34:46;;;;;;;;;;;12.50;99.90;;;;;;5036394;28;19928;-73
2022/05/07 02:37:12;;;;;;;;;;;12.40;99.90;;;;;;5035862;28;20050;-73
2022/05/07 02:39:37;;;;;;;;;;;12.50;99.90;;;;;;5034990;28;19928;-73
2022/05/07 02:44:47;;;;;;;;;;;12.40;99.90;;;;;;5036791;28;19971;-73
2022/05/07 02:47:15;;;;;;;;;;;12.50;99.90;;;;;;5034792;28;19929;-73
2022/05/07 02:49:41;;;;;;;;;;;12.70;99.90;;;;;;5035729;28;19928;-73
2022/05/07 02:52:06;;;;;;;;;;;12.40;99.90;;;;;;5035084;28;19968;-72
2022/05/07 02:54:32;;;;;;;;;;;12.40;99.90;;;;;;5034708;28;19943;-72
2022/05/07 02:56:58;;;;;;;;;;;12.50;99.90;;;;;;5036769;28;19921;-73
2022/05/07 02:59:24;;;;;;;;;;;12.50;99.90;;;;;;5035838;28;19921;-72
2022/05/07 03:01:49;;;;;;;;;;;12.50;99.90;;;;;;5035578;28;19921;-72
2022/05/07 03:04:15;;;;;;;;;;;12.50;99.90;;;;;;5035386;28;20383;-73
2022/05/07 03:06:40;;;;;;;;;;;12.40;99.90;;;;;;5035668;28;19928;-73
2022/05/07 03:09:06;;;;;;;;;;;12.40;99.90;;;;;;5036327;28;19928;-73
2022/05/07 03:11:33;;;;;;;;;;;12.40;99.90;;;;;;5036302;28;20451;-73
2022/05/07 03:13:59;;;;;;;;;;;12.40;99.90;;;;;;5036317;28;19929;-72
2022/05/07 03:16:24;;;;;;;;;;;12.40;99.90;;;;;;5035600;28;19921;-73
2022/05/07 03:18:50;;;;;;;;;;;12.40;99.90;;;;;;5034693;28;19928;-72
2022/05/07 03:21:15;;;;;;;;;;;12.40;99.90;;;;;;5034965;28;20345;-73
2022/05/07 03:23:42;;;;;;;;;;;12.40;99.90;;;;;;5034364;28;19921;-73
2022/05/07 03:26:11;;;;;;;;;;;12.40;99.90;;;;;;5033041;28;20386;-73
2022/05/07 03:28:37;;;;;;;;;;;12.40;99.90;;;;;;5033693;28;19921;-73
2022/05/07 03:31:03;;;;;;;;;;;12.40;99.90;;;;;;5034293;28;19932;-73
2022/05/07 03:33:29;;;;;;;;;;;12.40;99.90;;;;;;5033167;28;19921;-73
2022/05/07 03:35:54;;;;;;;;;;;12.70;99.90;;;;;;5033522;28;20628;-73
2022/05/07 03:38:20;;;;;;;;;;;12.30;99.90;;;;;;5033421;28;19921;-73
2022/05/07 03:40:45;;;;;;;;;;;12.40;99.90;;;;;;5033045;28;19925;-72
2022/05/07 03:43:11;;;;;;;;;;;12.30;99.90;;;;;;5035100;28;20280;-73
2022/05/07 03:45:36;;;;;;;;;;;12.30;99.90;;;;;;5036221;28;19968;-73
2022/05/07 03:48:02;;;;;;;;;;;12.30;99.90;;;;;;5034781;28;19925;-73
2022/05/07 03:50:27;;;;;;;;;;;12.30;99.90;;;;;;5035678;28;20388;-73
2022/05/07 03:55:41;;;;;;;;;;;12.40;99.90;;;;;;5035072;28;19964;-73
2022/05/07 03:58:10;;;;;;;;;;;12.40;99.90;;;;;;5035030;28;19921;-72
2022/05/07 04:00:39;;;;;;;;;;;12.40;99.90;;;;;;5038380;28;19925;-73
2022/05/07 04:03:05;;;;;;;;;;;12.40;99.90;;;;;;5037074;28;19927;-74
2022/05/07 04:05:30;;;;;;;;;;;12.50;99.90;;;;;;5038106;28;20007;-74
2022/05/07 04:07:56;;;;;;;;;;;12.40;99.90;;;;;;5038286;28;19921;-73
2022/05/07 04:10:21;;;;;;;;;;;12.40;99.90;;;;;;5036989;28;20456;-73
2022/05/07 04:12:48;;;;;;;;;;;12.60;99.90;;;;;;5037747;28;19928;-73
2022/05/07 04:15:14;;;;;;;;;;;12.40;99.90;;;;;;5036697;28;19920;-73
2022/05/07 04:17:40;;;;;;;;;;;12.40;99.90;;;;;;5038073;28;19921;-73
2022/05/07 04:20:12;;;;;;;;;;;12.40;99.90;;;;;;5038575;28;20031;-72
2022/05/07 04:22:37;;;;;;;;;;;12.40;99.90;;;;;;5037507;28;20369;-73
2022/05/07 04:25:04;;;;;;;;;;;12.40;99.90;;;;;;5037374;28;19921;-73
2022/05/07 04:27:32;;;;;;;;;;;12.40;99.90;;;;;;5038491;28;19928;-73
2022/05/07 04:29:57;;;;;;;;;;;12.40;99.90;;;;;;5036976;28;20284;-73
2022/05/07 04:32:23;;;;;;;;;;;12.40;99.90;;;;;;5038364;28;19921;-73
2022/05/07 04:34:49;;;;;;;;;;;12.50;99.90;;;;;;5038638;28;20016;-73
2022/05/07 04:37:14;;;;;;;;;;;12.40;99.90;;;;;;5037994;28;19976;-73
2022/05/07 04:39:40;;;;;;;;;;;12.40;99.90;;;;;;5037183;28;19924;-72
2022/05/07 04:42:09;;;;;;;;;;;12.50;99.90;;;;;;5036174;28;19921;-73
2022/05/07 04:44:35;;;;;;;;;;;12.50;99.90;;;;;;5036903;28;19920;-73
2022/05/07 04:47:01;;;;;;;;;;;12.40;99.90;;;;;;5036812;28;19983;-73
2022/05/07 04:49:26;;;;;;;;;;;12.40;99.90;;;;;;5035924;28;19921;-73
2022/05/07 04:51:52;;;;;;;;;;;12.40;99.90;;;;;;5036982;28;20073;-73
2022/05/07 04:54:19;;;;;;;;;;;12.40;99.90;;;;;;5036915;28;19921;-74
2022/05/07 04:56:49;;;;;;;;;;;12.40;99.90;;;;;;5038559;28;19967;-73
2022/05/07 04:59:14;;;;;;;;;;;12.40;99.90;;;;;;5036651;28;19921;-73
2022/05/07 05:01:40;;;;;;;;;;;12.50;99.90;;;;;;5036838;28;20368;-74
2022/05/07 05:04:06;;;;;;;;;;;12.50;99.90;;;;;;5035547;28;19921;-73
2022/05/07 05:06:31;;;;;;;;;;;12.60;99.90;;;;;;5037204;28;19921;-73
2022/05/07 05:08:57;;;;;;;;;;;12.70;99.90;;;;;;5037252;28;20388;-74
2022/05/07 05:11:22;;;;;;;;;;;12.70;99.90;;;;;;5034253;28;20281;-73
2022/05/07 05:13:48;;;;;;;;;;;12.70;99.90;;;;;;5037084;28;19917;-73
2022/05/07 05:16:13;;;;;;;;;;;12.70;99.90;;;;;;5035830;28;19921;-73
2022/05/07 05:18:39;;;;;;;;;;;12.80;99.90;;;;;;5034810;28;19921;-73
2022/05/07 05:21:08;;;;;;;;;;;12.80;99.90;;;;;;5035905;28;19964;-73
2022/05/07 05:23:33;;;;;;;;;;;12.90;99.90;;;;;;5035627;28;19943;-73
2022/05/07 05:25:59;;;;;;;;;;;13.00;99.90;;;;;;5035218;28;19944;-73
2022/05/07 05:28:24;;;;;;;;;;;13.10;99.90;;;;;;5036633;28;19967;-74
2022/05/07 05:30:51;;;;;;;;;;;13.10;99.90;;;;;;5036067;28;19983;-75
2022/05/07 05:33:17;;;;;;;;;;;13.20;99.90;;;;;;5035400;28;19921;-72
2022/05/07 05:35:47;;;;;;;;;;;13.20;99.90;;;;;;5035926;28;19905;-71
2022/05/07 05:38:12;;;;;;;;;;;13.30;99.90;;;;;;5035827;28;20307;-74
2022/05/07 05:40:38;;;;;;;;;;;13.30;99.90;;;;;;5035166;28;19917;-73
2022/05/07 05:43:03;;;;;;;;;;;13.60;99.90;;;;;;5035246;28;19921;-72
2022/05/07 05:45:32;;;;;;;;;;;13.50;99.90;;;;;;5037740;28;19975;-78
2022/05/07 05:47:57;;;;;;;;;;;13.60;99.90;;;;;;5037109;28;19921;-76
2022/05/07 05:50:23;;;;;;;;;;;13.60;99.90;;;;;;5035889;28;20361;-71
2022/05/07 05:52:48;;;;;;;;;;;13.70;99.90;;;;;;5036238;28;19921;-70
2022/05/07 05:55:14;;;;;;;;;;;13.70;99.90;;;;;;5034746;28;19928;-76
2022/05/07 05:57:40;;;;;;;;;;;13.80;99.90;;;;;;5032460;28;19928;-76
2022/05/07 06:00:07;;;;;;;;;;;13.90;99.90;;;;;;5035947;28;19921;-77
2022/05/07 06:02:36;;;;;;;;;;;14.00;99.90;;;;;;5034509;28;19932;-80
2022/05/07 06:05:01;;;;;;;;;;;14.10;99.90;;;;;;5034641;28;20375;-79
2022/05/07 06:07:27;;;;;;;;;;;14.20;99.90;;;;;;5034504;28;19921;-72
2022/05/07 06:09:52;;;;;;;;;;;14.20;99.90;;;;;;5036023;28;19932;-73
2022/05/07 06:12:17;;;;;;;;;;;14.20;99.90;;;;;;5034029;28;20007;-73
2022/05/07 06:14:43;;;;;;;;;;;14.40;99.90;;;;;;5034939;28;19925;-75
2022/05/07 06:17:09;;;;;;;;;;;14.50;99.90;;;;;;5035588;28;19921;-73
2022/05/07 06:19:34;;;;;;;;;;;14.60;99.90;;;;;;5035580;28;19928;-76
2022/05/07 06:22:00;;;;;;;;;;;14.60;99.90;;;;;;5033321;28;19920;-75
2022/05/07 06:27:28;;;;;;;;;;;14.50;99.90;;;;;;5032875;28;19974;-74
2022/05/07 06:29:54;;;;;;;;;;;14.50;99.90;;;;;;5015022;28;19924;-74
2022/05/07 06:32:20;;;;;;;;;;;14.20;99.90;;;;;;5016485;28;19976;-74
2022/05/07 06:34:45;;;;;;;;;;;14.50;99.90;;;;;;5016194;28;19918;-76
2022/05/07 06:37:11;;;;;;;;;;;14.10;99.90;;;;;;5013206;28;19968;-72
2022/05/07 06:39:40;;;;;;;;;;;14.10;99.90;;;;;;5015391;28;19921;-75
2022/05/07 06:42:09;;;;;;;;;;;14.90;99.90;;;;;;5015617;28;19975;-72
2022/05/07 06:44:34;;;;;;;;;;;14.00;99.90;;;;;;5030841;28;20352;-73
2022/05/07 06:47:00;;;;;;;;;;;14.10;99.90;;;;;;5034908;28;19932;-73
2022/05/07 06:49:25;;;;;;;;;;;14.00;99.90;;;;;;5035128;28;19967;-77
2022/05/07 06:51:51;;;;;;;;;;;14.00;99.90;;;;;;5034141;28;19925;-78
2022/05/07 06:54:21;;;;;;;;;;;14.00;99.90;;;;;;5034517;28;20019;-74
2022/05/07 06:56:47;;;;;;;;;;;14.00;99.90;;;;;;5034639;28;19929;-76
2022/05/07 06:59:12;;;;;;;;;;;14.00;99.90;;;;;;5034634;28;20037;-74
2022/05/07 07:01:38;;;;;;;;;;;14.00;99.90;;;;;;5034799;28;20024;-74
2022/05/07 07:04:04;;;;;;;;;;;14.10;99.90;;;;;;5033677;28;19936;-72
2022/05/07 07:06:29;;;;;;;;;;;14.10;99.90;;;;;;5034320;28;19927;-73
2022/05/07 07:09:18;;;;;;;;;;;14.10;99.90;;;;;;5039716;28;19917;-76
2022/05/07 07:11:44;;;;;;;;;;;14.10;99.90;;;;;;5034377;28;19946;-76
2022/05/07 07:14:09;;;;;;;;;;;14.40;99.90;;;;;;5032815;28;20424;-73
2022/05/07 07:16:35;;;;;;;;;;;14.10;99.90;;;;;;5034517;28;19928;-75
2022/05/07 07:19:04;;;;;;;;;;;14.10;99.90;;;;;;5033514;28;19967;-75
2022/05/07 07:21:29;;;;;;;;;;;14.10;99.90;;;;;;5035661;28;19921;-70
2022/05/07 07:23:55;;;;;;;;;;;14.10;99.90;;;;;;5036010;28;19944;-75
2022/05/07 07:26:20;;;;;;;;;;;14.10;99.90;;;;;;5032190;28;19928;-73
2022/05/07 07:28:49;;;;;;;;;;;14.20;99.90;;;;;;5033593;28;19921;-74
2022/05/07 07:31:16;;;;;;;;;;;14.20;99.90;;;;;;5032076;28;20376;-74
2022/05/07 07:33:42;;;;;;;;;;;14.20;99.90;;;;;;5032011;28;19921;-74
2022/05/07 07:36:08;;;;;;;;;;;14.30;99.90;;;;;;5034131;28;20374;-74
2022/05/07 07:38:35;;;;;;;;;;;14.40;99.90;;;;;;5034116;28;19925;-75
2022/05/07 07:41:01;;;;;;;;;;;14.40;99.90;;;;;;5032499;28;19948;-75
2022/05/07 07:43:26;;;;;;;;;;;14.50;99.90;;;;;;5032118;28;19921;-74
2022/05/07 07:48:36;;;;;;;;;;;14.70;99.90;;;;;;5034288;28;19928;-74
2022/05/07 07:51:04;;;;;;;;;;;14.80;99.90;;;;;;5032252;28;19928;-74
2022/05/07 07:53:33;;;;;;;;;;;15.00;99.90;;;;;;5031875;28;19921;-74
2022/05/07 07:56:01;;;;;;;;;;;15.10;99.90;;;;;;5034756;28;20007;-75
2022/05/07 07:58:27;;;;;;;;;;;15.60;99.90;;;;;;5034139;28;20443;-75
2022/05/07 08:00:52;;;;;;;;;;;15.40;99.90;;;;;;5034826;28;19968;-74
2022/05/07 08:03:19;;;;;;;;;;;15.60;99.90;;;;;;5034780;28;19990;-75
2022/05/07 08:05:46;;;;;;;;;;;15.60;99.90;;;;;;5033598;28;19921;-74
2022/05/07 08:13:42;;;;;;;;;;;16.30;99.90;;;;;;5033197;28;19978;-75
2022/05/07 08:16:08;;;;;;;;;;;16.20;99.90;;;;;;5033326;28;19928;-75
2022/05/07 08:18:37;;;;;;;;;;;16.20;99.90;;;;;;5034234;28;20022;-75
2022/05/07 08:21:06;;;;;;;;;;;16.20;99.90;;;;;;5032683;28;19924;-75
2022/05/07 08:23:31;;;;;;;;;;;16.30;99.90;;;;;;5034199;28;19921;-76
2022/05/07 08:25:57;;;;;;;;;;;16.50;99.90;;;;;;5034468;28;20407;-75
2022/05/07 08:28:24;;;;;;;;;;;17.00;99.90;;;;;;5033400;28;19947;-76
2022/05/07 08:30:50;;;;;;;;;;;17.60;99.90;;;;;;5034343;28;19928;-75
2022/05/07 08:33:17;;;;;;;;;;;18.40;99.90;;;;;;5035113;28;19920;-75
2022/05/07 08:35:43;;;;;;;;;;;19.20;99.90;;;;;;5033960;28;19940;-76
2022/05/07 08:38:08;;;;;;;;;;;19.40;99.90;;;;;;5033922;28;19920;-76
2022/05/07 08:40:34;;;;;;;;;;;19.40;99.90;;;;;;5034354;28;20015;-76
2022/05/07 08:42:59;;;;;;;;;;;19.40;99.90;;;;;;5033858;28;20284;-75
2022/05/07 08:45:25;;;;;;;;;;;19.20;99.90;;;;;;5037322;28;19921;-75
2022/05/07 08:47:54;;;;;;;;;;;19.00;99.90;;;;;;5036907;28;19974;-75
2022/05/07 08:50:20;;;;;;;;;;;18.90;99.90;;;;;;5037414;28;19947;-75
2022/05/07 08:52:46;;;;;;;;;;;18.80;99.90;;;;;;5038026;28;19921;-75
2022/05/07 08:55:13;;;;;;;;;;;18.70;99.90;;;;;;5036684;28;19928;-75
2022/05/07 08:57:39;;;;;;;;;;;18.40;99.90;;;;;;5036331;28;19925;-75
2022/05/07 09:00:05;;;;;;;;;;;18.10;99.90;;;;;;5038184;28;20357;-79
2022/05/07 09:02:38;;;;;;;;;;;18.50;99.90;;;;;;5037870;28;19967;-75
2022/05/07 09:05:05;;;;;;;;;;;18.50;99.90;;;;;;5037626;28;19921;-79
2022/05/07 09:07:31;;;;;;;;;;;18.30;99.90;;;;;;5038264;28;20403;-81
2022/05/07 09:09:56;;;;;;;;;;;18.20;99.90;;;;;;5037292;28;19921;-76
2022/05/07 09:12:30;;;;;;;;;;;18.10;99.90;;;;;;5036008;28;19921;-79
2022/05/07 09:15:08;;;;;;;;;;;18.10;99.90;;;;;;5038063;28;19921;-76
2022/05/07 09:17:36;;;;;;;;;;;18.10;99.90;;;;;;5035273;28;19921;-76
2022/05/07 09:20:11;;;;;;;;;;;17.80;99.90;;;;;;5037192;28;19928;-76
2022/05/07 09:22:48;;;;;;;;;;;17.70;99.90;;;;;;5038334;28;19921;-77
2022/05/07 09:25:18;;;;;;;;;;;17.70;99.90;;;;;;5036509;28;19974;-74
2022/05/07 09:27:47;;;;;;;;;;;17.60;99.90;;;;;;5035599;28;20284;-71
2022/05/07 09:30:13;;;;;;;;;;;17.40;99.90;;;;;;5036608;28;19932;-72
2022/05/07 09:32:38;;;;;;;;;;;17.60;99.90;;;;;;5036105;28;19921;-72
2022/05/07 09:38:01;;;;;;;;;;;18.10;99.90;;;;;;5037608;28;19921;-82
2022/05/07 09:40:30;;;;;;;;;;;18.50;99.90;;;;;;5039073;28;20027;-76
2022/05/07 09:42:59;;;;;;;;;;;18.80;99.90;;;;;;5036783;28;19920;-75
2022/05/07 09:45:26;;;;;;;;;;;18.80;99.90;;;;;;5036965;28;19927;-75
2022/05/07 09:47:58;;;;;;;;;;;19.10;99.90;;;;;;5037053;28;19928;-74
2022/05/07 09:50:43;;;;;;;;;;;19.70;99.90;;;;;;5036608;28;19932;-78
2022/05/07 09:58:45;;;;;;;;;;;20.20;99.90;;;;;;5036556;28;19928;-79
2022/05/07 10:01:32;;;;;;;;;;;20.00;99.90;;;;;;5036633;28;19924;-81
2022/05/07 10:04:26;;;;;;;;;;;20.30;99.90;;;;;;5036463;28;19951;-81
2022/05/07 10:06:51;;;;;;;;;;;20.50;99.90;;;;;;5037797;28;19917;-79
2022/05/07 10:09:25;;;;;;;;;;;20.60;99.90;;;;;;5037851;28;19968;-78
2022/05/07 10:11:55;;;;;;;;;;;20.30;99.90;;;;;;5036792;28;19921;-75
2022/05/07 10:14:24;;;;;;;;;;;19.90;99.90;;;;;;5035318;28;19921;-76
2022/05/07 10:16:55;;;;;;;;;;;19.70;99.90;;;;;;5036350;28;20380;-74
2022/05/07 10:19:31;;;;;;;;;;;19.70;99.90;;;;;;5034823;28;19921;-75
2022/05/07 10:21:57;;;;;;;;;;;19.70;99.90;;;;;;5035027;28;20012;-74
2022/05/07 10:24:23;;;;;;;;;;;19.10;99.90;;;;;;5025126;28;20007;-72
2022/05/07 10:26:49;;;;;;;;;;;19.00;99.90;;;;;;5033994;28;19928;-69
2022/05/07 10:29:27;;;;;;;;;;;19.20;99.90;;;;;;5030537;28;19917;-74
2022/05/07 10:32:02;;;;;;;;;;;19.40;99.90;;;;;;5034782;28;19921;-71
2022/05/07 10:34:28;;;;;;;;;;;19.40;99.90;;;;;;5032783;28;19963;-71
2022/05/07 10:37:04;;;;;;;;;;;19.60;99.90;;;;;;5034250;28;19921;-71
2022/05/07 10:39:31;;;;;;;;;;;20.10;99.90;;;;;;5031711;28;19921;-72
2022/05/07 10:41:57;;;;;;;;;;;20.30;99.90;;;;;;5030213;28;19921;-72
2022/05/07 10:44:32;;;;;;;;;;;19.90;99.90;;;;;;5033667;28;20004;-71
2022/05/07 10:47:07;;;;;;;;;;;20.00;99.90;;;;;;5025779;28;19928;-71
2022/05/07 10:49:33;;;;;;;;;;;20.10;99.90;;;;;;5028678;28;19931;-71
2022/05/07 10:52:02;;;;;;;;;;;20.40;99.90;;;;;;5033409;28;19925;-72
2022/05/07 10:54:28;;;;;;;;;;;20.80;99.90;;;;;;5031246;28;19921;-72
2022/05/07 10:56:54;;;;;;;;;;;21.20;99.90;;;;;;5023226;28;19944;-72
2022/05/07 10:59:24;;;;;;;;;;;21.70;99.90;;;;;;5032596;28;19944;-71
2022/05/07 11:01:50;;;;;;;;;;;21.60;99.90;;;;;;5032163;28;19986;-71
2022/05/07 11:04:18;;;;;;;;;;;21.70;99.90;;;;;;5033641;28;20343;-71
2022/05/07 11:06:43;;;;;;;;;;;22.10;99.90;;;;;;5026007;28;20296;-71
2022/05/07 11:09:19;;;;;;;;;;;22.60;99.90;;;;;;5030169;28;19925;-71
2022/05/07 11:11:46;;;;;;;;;;;23.30;99.90;;;;;;5018386;28;19932;-72
2022/05/07 11:14:22;;;;;;;;;;;23.00;99.40;;;;;;5034125;28;20067;-72
2022/05/07 11:16:48;;;;;;;;;;;22.80;99.80;;;;;;5034864;28;19921;-71
2022/05/07 11:19:24;;;;;;;;;;;23.10;99.90;;;;;;5021931;28;19921;-73
2022/05/07 11:21:53;;;;;;;;;;;23.10;99.90;;;;;;5016619;28;19921;-72
2022/05/07 11:24:21;;;;;;;;;;;23.10;99.90;;;;;;5029825;28;20038;-71
2022/05/07 11:26:55;;;;;;;;;;;23.20;99.90;;;;;;5023541;28;19921;-71
2022/05/07 11:29:20;;;;;;;;;;;22.90;99.90;;;;;;5004467;28;19996;-72
2022/05/07 11:32:03;;;;;;;;;;;22.40;98.80;;;;;;5030971;28;20401;-72
2022/05/07 11:34:31;;;;;;;;;;;22.60;99.90;;;;;;5018623;28;20007;-71
2022/05/07 11:37:08;;;;;;;;;;;22.70;99.00;;;;;;5032105;28;20292;-71
2022/05/07 11:39:55;;;;;;;;;;;22.90;99.90;;;;;;5018289;28;19922;-71
2022/05/07 11:42:43;;;;;;;;;;;22.70;98.80;;;;;;5032366;28;19921;-71
2022/05/07 11:47:55;;;;;;;;;;;22.40;99.70;;;;;;5032920;28;19943;-71
2022/05/07 11:50:24;;;;;;;;;;;22.20;97.90;;;;;;5018053;28;19921;-71
2022/05/07 11:52:49;;;;;;;;;;;22.00;99.90;;;;;;5025007;28;19971;-71
2022/05/07 11:55:17;;;;;;;;;;;21.80;99.90;;;;;;5024609;28;19968;-71
2022/05/07 11:57:46;;;;;;;;;;;21.40;99.90;;;;;;5017877;28;20369;-71
2022/05/07 12:00:13;;;;;;;;;;;21.20;99.90;;;;;;5030521;28;19941;-72
2022/05/07 12:02:39;;;;;;;;;;;20.90;99.90;;;;;;5021563;28;19921;-72
2022/05/07 12:05:04;;;;;;;;;;;20.60;99.90;;;;;;5022766;28;19921;-75
2022/05/07 12:07:38;;;;;;;;;;;20.40;99.90;;;;;;5027222;28;19975;-72
2022/05/07 12:10:04;;;;;;;;;;;20.40;99.90;;;;;;5032513;28;20024;-71
2022/05/07 12:12:29;;;;;;;;;;;20.70;99.90;;;;;;5033425;28;19961;-72
2022/05/07 12:14:55;;;;;;;;;;;21.40;99.90;;;;;;5032968;28;19928;-73
2022/05/07 12:20:04;;;;;;;;;;;22.00;99.90;;;;;;5035679;28;19967;-72
2022/05/07 12:30:43;;;;;;;;;;;21.20;99.90;;;;;;5036462;28;20038;-73
2022/05/07 12:33:11;;;;;;;;;;;21.30;99.90;;;;;;5036940;28;19920;-71
2022/05/07 12:35:52;;;;;;;;;;;21.60;99.90;;;;;;5037402;28;19921;-72
2022/05/07 12:38:17;;;;;;;;;;;21.70;99.90;;;;;;5036698;28;19921;-72
2022/05/07 12:40:43;;;;;;;;;;;21.80;99.90;;;;;;5037000;28;19931;-72
2022/05/07 12:43:08;;;;;;;;;;;21.90;99.10;;;;;;5035233;28;19987;-72
2022/05/07 12:45:35;;;;;;;;;;;22.40;99.90;;;;;;5037150;28;20426;-72
2022/05/07 12:48:00;;;;;;;;;;;22.50;99.60;;;;;;5037042;28;20003;-72
2022/05/07 12:50:26;;;;;;;;;;;22.70;99.40;;;;;;5038043;28;19960;-72
2022/05/07 12:52:51;;;;;;;;;;;22.70;99.00;;;;;;5037012;28;19928;-72
2022/05/07 12:55:17;;;;;;;;;;;22.90;98.90;;;;;;5035571;28;19921;-73
2022/05/07 12:57:42;;;;;;;;;;;22.90;98.10;;;;;;5037360;28;19989;-72
2022/05/07 13:00:08;;;;;;;;;;;22.80;98.20;;;;;;5036620;28;19921;-72
2022/05/07 13:02:34;;;;;;;;;;;22.50;98.40;;;;;;5035435;28;19921;-75
2022/05/07 13:04:59;;;;;;;;;;;22.30;99.20;;;;;;5036247;28;19925;-74
2022/05/07 13:07:25;;;;;;;;;;;21.80;99.20;;;;;;5035001;28;19932;-75
2022/05/07 13:09:53;;;;;;;;;;;21.50;99.10;;;;;;5036300;28;19921;-74
2022/05/07 13:12:31;;;;;;;;;;;21.20;99.90;;;;;;5037960;28;19927;-75
2022/05/07 13:14:59;;;;;;;;;;;20.70;99.90;;;;;;5037082;28;19939;-73
2022/05/07 13:17:25;;;;;;;;;;;20.30;99.90;;;;;;5037220;28;19921;-72
2022/05/07 13:19:52;;;;;;;;;;;20.10;99.90;;;;;;5037374;28;19921;-73
2022/05/07 13:22:18;;;;;;;;;;;19.90;99.90;;;;;;5035190;28;19924;-74
2022/05/07 13:24:43;;;;;;;;;;;19.80;99.90;;;;;;5034619;28;20003;-75
2022/05/07 13:27:09;;;;;;;;;;;20.00;99.90;;;;;;5036003;28;19921;-74
2022/05/07 13:29:34;;;;;;;;;;;20.40;99.90;;;;;;5036924;28;19921;-75
2022/05/07 13:32:00;;;;;;;;;;;20.20;99.90;;;;;;5034520;28;19921;-73
2022/05/07 13:34:25;;;;;;;;;;;20.10;99.90;;;;;;5036473;28;19928;-74
2022/05/07 13:36:51;;;;;;;;;;;20.20;99.90;;;;;;5036923;28;20395;-73
2022/05/07 13:39:17;;;;;;;;;;;19.90;99.90;;;;;;5035109;28;19924;-72
2022/05/07 13:41:43;;;;;;;;;;;19.90;99.90;;;;;;5035001;28;19964;-74
2022/05/07 13:44:10;;;;;;;;;;;20.00;99.90;;;;;;5035172;28;20384;-73
2022/05/07 13:46:39;;;;;;;;;;;20.20;99.90;;;;;;5033600;28;20012;-74
2022/05/07 13:49:05;;;;;;;;;;;20.20;99.90;;;;;;5027439;28;20320;-75
2022/05/07 13:51:31;;;;;;;;;;;20.30;99.90;;;;;;5035060;28;19927;-73
2022/05/07 13:53:58;;;;;;;;;;;20.10;99.90;;;;;;5035515;28;19928;-73
2022/05/07 13:56:26;;;;;;;;;;;20.60;99.90;;;;;;5018580;28;19931;-73
2022/05/07 13:58:51;;;;;;;;;;;20.60;99.90;;;;;;5035149;28;20016;-73
2022/05/07 14:01:17;;;;;;;;;;;20.60;99.90;;;;;;5034603;28;19960;-73
2022/05/07 14:03:42;;;;;;;;;;;20.60;99.90;;;;;;5035847;28;19921;-73
2022/05/07 14:06:08;;;;;;;;;;;20.60;99.90;;;;;;5033475;28;19926;-73
2022/05/07 14:08:33;;;;;;;;;;;20.60;99.90;;;;;;5034641;28;20245;-73
2022/05/07 14:10:59;;;;;;;;;;;20.60;99.90;;;;;;5035118;28;19925;-73
2022/05/07 14:13:28;;;;;;;;;;;20.70;99.90;;;;;;5035075;28;20383;-73
2022/05/07 14:15:53;;;;;;;;;;;20.40;99.90;;;;;;5035333;28;19921;-73
2022/05/07 14:18:19;;;;;;;;;;;20.50;99.90;;;;;;5034249;28;19921;-72
2022/05/07 14:20:48;;;;;;;;;;;20.10;99.90;;;;;;5035339;28;20335;-72
2022/05/07 14:23:14;;;;;;;;;;;19.40;99.90;;;;;;5035601;28;19920;-72
2022/05/07 14:25:39;;;;;;;;;;;19.40;99.90;;;;;;5035534;28;19967;-72
2022/05/07 14:28:05;;;;;;;;;;;19.30;99.90;;;;;;5033161;28;20036;-71
2022/05/07 14:30:31;;;;;;;;;;;19.10;99.90;;;;;;5035297;28;19925;-81
2022/05/07 14:32:57;;;;;;;;;;;18.90;99.90;;;;;;5035721;28;19921;-74
2022/05/07 14:35:22;;;;;;;;;;;18.60;99.90;;;;;;5036136;28;19924;-74
2022/05/07 14:37:48;;;;;;;;;;;18.20;99.90;;;;;;5035274;28;19921;-75
2022/05/07 14:40:28;;;;;;;;;;;18.20;99.90;;;;;;5035971;28;20030;-79
2022/05/07 14:42:54;;;;;;;;;;;18.00;99.90;;;;;;5015871;28;19925;-79
2022/05/07 14:45:20;;;;;;;;;;;17.90;99.90;;;;;;5016964;28;19928;-74
2022/05/07 14:47:46;;;;;;;;;;;17.70;99.90;;;;;;5032000;28;19921;-75
2022/05/07 14:50:11;;;;;;;;;;;17.50;99.90;;;;;;5027868;28;19967;-81
2022/05/07 14:52:37;;;;;;;;;;;17.30;99.90;;;;;;5036819;28;19960;-80
2022/05/07 14:55:03;;;;;;;;;;;17.30;99.90;;;;;;5034640;28;19921;-74